메인 페이지
METAR-TAF:

METAR-TAF

공항 :

오타와 맥도널드 카르티에 국제공항

오타와, 온타리오, 캐나다

위도: 45-19N, 경도: 075-40W, 고도: 116m

현재 날씨관측

예보는 1 시간 5분 전, 01:00시(UTC)에 발표되었습니다.
동북동14kt
온도 9°C
습도 57%
기압 1030 hPa
시정: 24.1km
고도 24000ft 상공 구름 보통

METAR: CYOW 250100Z 07014KT 15SM SCT240 09/01 A3041 RMK CI4 SLP304

시각: 22:05 (02:05 UTC)

예보

예보는 2 시간 27분 전, 23:38시(UTC)에 발표되었습니다.
예보 대상 시간: 25일 00시부터 25일 24시까지 (UTC)
동북동12kt
시정: 10km
고도 25000ft 상공 구름 보통
전환 중
25일 03시부터 25일 05시까지 (UTC)
여러 방향의 바람 3kt
25일 0800시부터 (UTC)
남동8kt
시정: 10km
고도 4000ft 상공 흐림
25일 1000시부터 (UTC)
남동8kt
시정: 10km
고도 2000ft 상공 흐림
약한비
25일 1400시부터 (UTC)
남남동10kt
고도 800ft 상공 흐림
약한비, 박무
25일 1700시부터 (UTC)
10kt
시정: 9.7km
고도 800ft 상공 구름 보통
고도 1200ft 상공 흐림
약한소나기, 박무

TAF: CYOW 242338Z 2500/2524 06012KT P6SM SCT250 BECMG 2503/2505 VRB03KT FM250800 13008KT P6SM OVC040 FM251000 14008KT P6SM -RA OVC020 FM251400 15010KT 21/2SM -RA BR OVC008 FM251700 17010KT 6SM -SHRA BR SCT008 OVC012 RMK NXT FCST BY 250300Z

4,000개 이상의 공항 관측 자료 및 예보 (METAR 및 TAF 보고).

지도상에서 검색 가능한 기상관측소가 노란 점과 빨간 점으로 표시되어 있습니다.

기상관측소 명을 보려면 표시 위로 마우스를 이동하세요.

날씨 관측과 예보를 보려면 클릭하세요.

지도 변경 : 확대하려면 엑스 표시가 있는 녹색 버튼, 축소하려면 빼기 표시가 있는 녹색 버튼, 다음 페이지의 지도를 보려면 녹색 화살표를 클릭하세요.


METAR-TAF: